Bei Facebook empfehlenBei Twitter postenGoogle plusPinterest

Das Wetter im Erzgebirge am 26.06.2016

Wetter und Klima am 26.06.2016 Holzhau im Erzgebirge (630m ü.NN)
Letzte gemessene Temperatur und Uhrzeit der Messung23:45:00 Uhr13.30 °C
Temperatur (Maximum / Höchstwert) und Uhrzeit der Messung16:00:00 Uhr22.10 °C
Temperatur (Minimum / Tiefstwert) und Uhrzeit der Messung07:30:0011.20 °C
Errechneter Absolutwert der Temperaturschwankungen zwischen Tmin und Tmax des Tages10.90 K
Errechnete Tagesmitteltemperatur16.44167 °C
Gesamt - Niederschlag des Tages (in flüssiger Form)6.73 Liter / m²
Luftdruck (Maximum / Höchstwert) und Zeitpunkt der Messung23:30:00 Uhr1015.50 hPa
Luftdruck (Minimum / Tiefstwert) und Zeitpunkt der Messung00:00:00 Uhr1010.10 hPa
Errechneter Absolutwert der Luftdruckschwankungen des Tages5.40 hPa
Höchste gemessene Windgeschwindigkeit und Uhrzeit der Messung23:45:00 Uhr0.00 km/h
Errechnete Windhäufigkeit in Relation zu den Messwerten des Tages0.00000 %
Niedrigste Windkühle (Windchill) und Zeitpunkt der Messung07:30:00 Uhr11.20 °C
Taupunkt (Maximum / Höchstwert) und Uhrzeit der Messung00:15:00 Uhr16.60 °C
Taupunkt (Minimum / Tiefstwert) und Uhrzeit der Messung07:30:0010.40 °C
Anzahl der automatisch eingelesenen Messwerte 96

Detaillierte Wetter- und Klima- Messwerte für den 26.06.2016 in Holzhau im Erzgebirge (630m ü.NN)
ZeitTemperaturLuftdruckRel. LuftfeuchteWindWindrichtungWindchillTaupunktNiederschlag l/m²
23:45:0013.30 °C1015.30 hPa89.00 %11.50 °C6.73
23:30:0013.30 °C1015.50 hPa89.00 %11.50 °C6.73
23:15:0013.20 °C1015.40 hPa88.00 %11.30 °C6.73
23:00:0013.40 °C1015.50 hPa87.00 %11.30 °C6.73
22:45:0013.80 °C1015.30 hPa87.00 %11.70 °C6.73
22:30:0014.00 °C1015.20 hPa87.00 %11.90 °C6.73
22:15:0014.10 °C1015.20 hPa86.00 %11.80 °C6.73
22:00:0014.40 °C1015.20 hPa85.00 %11.90 °C6.73
21:45:0014.60 °C1015.00 hPa83.00 %11.70 °C6.73
21:30:0014.80 °C1015.10 hPa82.00 %11.80 °C6.73
21:15:0014.90 °C1015.10 hPa80.00 %11.50 °C6.73
21:00:0015.50 °C1015.00 hPa78.00 %11.70 °C6.73
20:45:0016.50 °C1014.90 hPa76.00 %12.30 °C6.73
20:30:0017.10 °C1014.80 hPa74.00 %12.40 °C6.73
20:15:0017.80 °C1014.80 hPa73.00 %12.90 °C6.73
20:00:0018.20 °C1014.80 hPa71.00 %12.90 °C6.73
19:45:0018.40 °C1014.70 hPa70.00 %12.80 °C6.73
19:30:0018.60 °C1014.70 hPa67.00 %12.40 °C6.73
19:15:0019.10 °C1014.60 hPa67.00 %12.80 °C6.73
19:00:0019.10 °C1014.70 hPa68.00 %13.10 °C6.73
18:45:0018.90 °C1014.60 hPa68.00 %12.90 °C6.73
18:30:0018.90 °C1014.80 hPa66.00 %12.40 °C6.73
18:15:0019.40 °C1014.60 hPa61.00 %11.70 °C6.73
18:00:0020.10 °C1014.70 hPa60.00 %12.10 °C6.73
17:45:0020.60 °C1014.60 hPa60.00 %12.60 °C6.73
17:30:0020.20 °C1014.80 hPa61.00 %12.40 °C6.73
17:15:0020.10 °C1015.00 hPa60.00 %12.10 °C6.73
17:00:0020.60 °C1015.00 hPa58.00 %12.10 °C6.73
16:45:0020.70 °C1015.00 hPa58.00 %12.10 °C6.73
16:30:0020.60 °C1014.80 hPa57.00 %11.80 °C6.73
16:15:0021.30 °C1015.10 hPa56.00 %12.20 °C6.73
16:00:0022.10 °C1015.00 hPa55.00 %12.60 °C6.73
15:45:0021.90 °C1015.10 hPa57.00 %13.00 °C6.73
15:30:0021.30 °C1015.10 hPa58.00 %12.70 °C6.73
15:15:0021.60 °C1015.10 hPa58.00 %13.00 °C6.73
15:00:0021.80 °C1015.10 hPa56.00 %12.60 °C6.73
14:45:0021.60 °C1015.30 hPa59.00 %13.20 °C6.73
14:30:0021.30 °C1015.20 hPa58.00 %12.70 °C6.73
14:15:0021.80 °C1015.20 hPa57.00 %12.90 °C6.73
14:00:0021.60 °C1015.20 hPa59.00 %13.20 °C6.73
13:45:0021.60 °C1015.30 hPa59.00 %13.20 °C6.73
13:30:0020.90 °C1015.20 hPa65.00 %14.10 °C6.73
13:15:0020.20 °C1015.30 hPa65.00 %13.40 °C6.73
13:00:0020.40 °C1015.20 hPa67.00 %14.10 °C6.73
12:45:0019.60 °C1015.10 hPa69.00 %13.80 °C6.73
12:30:0019.40 °C1015.30 hPa72.00 %14.20 °C6.73
12:15:0019.70 °C1015.40 hPa72.00 %14.50 °C6.73
12:00:0019.00 °C1015.20 hPa76.00 %14.70 °C6.73
11:45:0018.40 °C1015.30 hPa79.00 %14.70 °C6.73
11:30:0018.30 °C1015.20 hPa81.00 %15.00 °C6.73
11:15:0017.30 °C1015.00 hPa85.00 %14.80 °C6.73
11:00:0016.60 °C1015.10 hPa87.00 %14.40 °C6.73
10:45:0016.60 °C1015.10 hPa90.00 %15.00 °C6.73
10:30:0016.20 °C1015.10 hPa92.00 %14.90 °C6.73
10:15:0014.90 °C1015.00 hPa93.00 %13.80 °C6.73
10:00:0014.90 °C1014.90 hPa94.00 %13.90 °C6.73
09:45:0014.60 °C1014.80 hPa94.00 %13.60 °C6.73
09:30:0014.10 °C1014.70 hPa95.00 %13.30 °C6.73
09:15:0013.40 °C1014.50 hPa95.00 %12.60 °C6.73
09:00:0013.90 °C1014.50 hPa96.00 %13.30 °C6.73
08:45:0013.80 °C1014.40 hPa96.00 %13.20 °C6.73
08:30:0013.00 °C1014.30 hPa96.00 %12.40 °C6.73
08:15:0012.30 °C1014.20 hPa96.00 %11.70 °C6.73
08:00:0011.80 °C1014.20 hPa96.00 %11.20 °C6.73
07:45:0011.30 °C1014.30 hPa96.00 %10.70 °C6.73
07:30:0011.20 °C1014.30 hPa95.00 %10.40 °C6.73
07:15:0011.30 °C1014.20 hPa95.00 %10.50 °C6.73
07:00:0011.30 °C1013.90 hPa95.00 %10.50 °C6.73
06:45:0011.30 °C1013.80 hPa95.00 %10.50 °C6.73
06:30:0011.30 °C1013.70 hPa95.00 %10.50 °C6.73
06:15:0011.40 °C1013.80 hPa95.00 %10.60 °C6.73
06:00:0011.80 °C1013.50 hPa95.00 %11.00 °C6.73
05:45:0011.90 °C1013.30 hPa95.00 %11.10 °C6.73
05:30:0012.00 °C1013.10 hPa95.00 %11.20 °C6.73
05:15:0012.10 °C1013.00 hPa95.00 %11.30 °C6.73
05:00:0012.20 °C1012.90 hPa94.00 %11.30 °C6.73
04:45:0012.60 °C1012.60 hPa95.00 %11.80 °C6.73
04:30:0012.80 °C1012.50 hPa95.00 %12.00 °C6.73
04:15:0013.20 °C1012.30 hPa95.00 %12.40 °C6.73
04:00:0013.60 °C1012.20 hPa94.00 %12.70 °C6.73
03:45:0014.10 °C1011.70 hPa94.00 %13.10 °C6.73
03:30:0014.20 °C1011.60 hPa94.00 %13.20 °C6.22
03:15:0014.40 °C1011.40 hPa94.00 %13.40 °C6.22
03:00:0014.80 °C1011.20 hPa94.00 %13.80 °C6.22
02:45:0015.30 °C1010.80 hPa94.00 %14.30 °C6.22
02:30:0015.70 °C1010.30 hPa94.00 %14.70 °C6.22
02:15:0015.90 °C1010.30 hPa94.00 %14.90 °C6.22
02:00:0015.90 °C1010.20 hPa93.00 %14.80 °C5.70
01:45:0016.10 °C1010.30 hPa93.00 %15.00 °C5.70
01:30:0016.30 °C1010.90 hPa93.00 %15.20 °C4.14
01:15:0016.40 °C1011.00 hPa93.00 %15.30 °C3.11
01:00:0016.50 °C1011.10 hPa93.00 %15.40 °C2.59
00:45:0016.90 °C1011.10 hPa93.00 %15.80 °C0.52
00:30:0017.40 °C1011.00 hPa92.00 %16.10 °C 
00:15:0017.90 °C1010.60 hPa92.00 %16.60 °C 
00:00:0017.90 °C1010.10 hPa92.00 %16.60 °C 

Permanenter Link zu dieser Seite: Wetter im Erzgebirge am 26.06.2016
Performance-Info: Die Erstellung der Seite / Statistik(en) / Tabelle(n) erforderte 5 Datenbankserver-Abfrage(n) und dauerte 102 Millisekunden. (Dieser Messwert ist von der Gesamt-Auslastung des Servers abhängig.)
Erzgebirge - Wetter | Erzgebirge - Wetter (Mobilgeräte) | Komplette Klimadatenbank